Time;durP1;ratioP1;P1;durP2;ratioP2;P2;SDS_P1;SDS_P2;PMS_P1;PMS_P2;Temp;Humidity;BMP_temperature;BMP_pressure;BME280_temperature;BME280_humidity;BME280_pressure;Samples;Min_cycle;Max_cycle;Signal;HPM_P1;HPM_P2
2023/06/01 00:00:30;;;;;;;22.00;20.80;;;;;;;;;;5034574;28;20037;-53
2023/06/01 00:02:56;;;;;;;22.88;21.67;;;;;;;;;;5039046;28;20038;-52
2023/06/01 00:05:21;;;;;;;20.88;19.77;;;;;;;;;;5035393;28;20045;-53
2023/06/01 00:07:47;;;;;;;20.55;19.45;;;;;;;;;;5036694;28;20427;-54
2023/06/01 00:10:12;;;;;;;18.67;17.63;;;;;;;;;;5035088;28;20458;-54
2023/06/01 00:12:38;;;;;;;16.30;15.40;;;;;;;;;;5034917;28;20040;-53
2023/06/01 00:15:03;;;;;;;15.23;14.32;;;;;;;;;;5034792;28;20041;-54
2023/06/01 00:17:30;;;;;;;16.25;15.15;;;;;;;;;;5036152;28;20033;-55
2023/06/01 00:19:56;;;;;;;14.02;13.23;;;;;;;;;;5038307;28;20049;-53
2023/06/01 00:22:23;;;;;;;12.40;11.63;;;;;;;;;;5034281;28;20041;-54
2023/06/01 00:24:50;;;;;;;11.60;10.90;;;;;;;;;;5036872;28;20064;-54
2023/06/01 00:27:15;;;;;;;12.45;11.75;;;;;;;;;;5033705;28;20064;-56
2023/06/01 00:29:40;;;;;;;11.98;11.27;;;;;;;;;;5034187;28;20044;-55
2023/06/01 00:32:06;;;;;;;13.10;12.23;;;;;;;;;;5038752;28;20141;-53
2023/06/01 00:34:32;;;;;;;12.20;11.50;;;;;;;;;;5035592;28;20039;-53
2023/06/01 00:36:57;;;;;;;11.23;10.52;;;;;;;;;;5037118;28;20104;-52
2023/06/01 00:39:22;;;;;;;12.40;11.70;;;;;;;;;;5033339;28;20037;-54
2023/06/01 00:41:48;;;;;;;12.27;11.57;;;;;;;;;;5039301;28;20091;-50
2023/06/01 00:44:13;;;;;;;10.93;10.25;;;;;;;;;;5035334;28;20061;-55
2023/06/01 00:46:39;;;;;;;13.25;12.45;;;;;;;;;;5035420;28;20033;-52
2023/06/01 00:49:04;;;;;;;11.98;10.98;;;;;;;;;;5035486;28;20033;-55
2023/06/01 00:51:32;;;;;;;11.93;11.10;;;;;;;;;;5035654;28;20211;-53
2023/06/01 00:53:59;;;;;;;13.60;12.80;;;;;;;;;;5030672;28;20124;-55
2023/06/01 00:56:24;;;;;;;12.73;12.02;;;;;;;;;;5035141;28;20033;-57
2023/06/01 00:58:50;;;;;;;13.20;12.40;;;;;;;;;;5030197;28;20056;-53
2023/06/01 01:01:19;;;;;;;14.65;13.80;;;;;;;;;;5033429;28;20041;-53
2023/06/01 01:03:46;;;;;;;18.23;17.23;;;;;;;;;;5033700;28;20033;-55
2023/06/01 01:06:25;;;;;;;19.75;18.65;;;;;;;;;;5044346;28;20101;-52
2023/06/01 01:09:10;;;;;;;18.25;17.25;;;;;;;;;;5032083;28;20056;-52
2023/06/01 01:11:39;;;;;;;18.48;17.48;;;;;;;;;;5034528;28;20051;-52
2023/06/01 01:14:11;;;;;;;18.60;17.60;;;;;;;;;;5034391;28;20033;-51
2023/06/01 01:16:53;;;;;;;18.52;17.52;;;;;;;;;;5036314;28;20056;-53
2023/06/01 01:20:12;;;;;;;18.95;17.95;;;;;;;;;;5036747;28;20041;-54
2023/06/01 01:22:38;;;;;;;19.02;17.85;;;;;;;;;;5010753;28;20535;-53
2023/06/01 01:25:49;;;;;;;17.63;16.08;;;;;;;;;;5030382;28;20044;-53
2023/06/01 01:28:43;;;;;;;15.63;14.30;;;;;;;;;;4992032;28;20123;-54
2023/06/01 01:31:15;;;;;;;14.43;13.63;;;;;;;;;;5033139;28;20037;-52
2023/06/01 01:33:42;;;;;;;13.98;13.07;;;;;;;;;;5035507;28;20116;-53
2023/06/01 01:36:09;;;;;;;13.25;12.45;;;;;;;;;;5036386;28;20395;-53
2023/06/01 01:38:35;;;;;;;12.02;11.23;;;;;;;;;;5033091;28;20135;-54
2023/06/01 01:41:01;;;;;;;12.82;12.05;;;;;;;;;;5034755;28;20030;-54
2023/06/01 01:43:26;;;;;;;11.70;11.00;;;;;;;;;;5034162;28;20033;-53
2023/06/01 01:46:02;;;;;;;10.30;9.60;;;;;;;;;;5033904;28;20048;-54
2023/06/01 01:48:52;;;;;;;10.88;10.18;;;;;;;;;;5032514;28;20195;-51
2023/06/01 01:51:26;;;;;;;9.68;9.07;;;;;;;;;;5036182;28;20032;-52
2023/06/01 01:53:53;;;;;;;9.43;8.82;;;;;;;;;;5036928;28;20044;-51
2023/06/01 01:56:19;;;;;;;10.38;9.77;;;;;;;;;;5036738;28;20025;-53
2023/06/01 01:58:47;;;;;;;11.05;10.35;;;;;;;;;;5034659;28;20113;-52
2023/06/01 02:01:12;;;;;;;9.68;9.07;;;;;;;;;;5033248;28;20041;-50
2023/06/01 02:03:38;;;;;;;10.52;9.82;;;;;;;;;;5035234;28;20043;-50
2023/06/01 02:06:03;;;;;;;9.90;9.30;;;;;;;;;;5034824;28;20040;-52
2023/06/01 02:08:28;;;;;;;10.10;9.50;;;;;;;;;;5033571;28;20082;-53
2023/06/01 02:10:54;;;;;;;10.73;10.05;;;;;;;;;;5033668;28;20037;-54
2023/06/01 02:13:19;;;;;;;10.48;9.77;;;;;;;;;;5032342;28;20147;-53
2023/06/01 02:15:45;;;;;;;10.50;9.60;;;;;;;;;;5034884;28;20033;-53
2023/06/01 02:18:11;;;;;;;10.77;10.07;;;;;;;;;;5033401;28;20044;-53
2023/06/01 02:20:36;;;;;;;11.10;10.40;;;;;;;;;;5032958;28;20060;-54
2023/06/01 02:23:01;;;;;;;10.32;9.70;;;;;;;;;;5033303;28;20100;-54
2023/06/01 02:25:27;;;;;;;10.35;9.32;;;;;;;;;;5035841;28;20036;-54
2023/06/01 02:27:52;;;;;;;9.95;9.35;;;;;;;;;;5037537;28;20538;-53
2023/06/01 02:30:17;;;;;;;9.73;9.13;;;;;;;;;;5033877;28;20041;-54
2023/06/01 02:32:44;;;;;;;10.50;9.80;;;;;;;;;;5031969;28;20490;-53
2023/06/01 02:35:10;;;;;;;9.98;9.38;;;;;;;;;;5033008;28;20052;-54
2023/06/01 02:37:36;;;;;;;10.13;9.50;;;;;;;;;;5030689;28;20476;-53
2023/06/01 02:40:01;;;;;;;10.90;10.10;;;;;;;;;;5031489;28;20040;-54
2023/06/01 02:42:26;;;;;;;9.63;8.88;;;;;;;;;;5029739;28;20063;-54
2023/06/01 02:44:52;;;;;;;10.52;9.93;;;;;;;;;;5032777;28;20028;-53
2023/06/01 02:47:17;;;;;;;10.45;9.50;;;;;;;;;;5031550;28;20060;-52
2023/06/01 02:49:42;;;;;;;10.00;9.35;;;;;;;;;;5036940;28;20535;-53
2023/06/01 02:52:08;;;;;;;10.00;9.40;;;;;;;;;;5036263;28;20133;-50
2023/06/01 02:54:33;;;;;;;10.95;10.25;;;;;;;;;;5032822;28;20033;-54
2023/06/01 02:56:58;;;;;;;10.35;9.75;;;;;;;;;;5034286;28;20083;-53
2023/06/01 02:59:24;;;;;;;10.68;9.98;;;;;;;;;;5031624;28;20060;-53
2023/06/01 03:01:49;;;;;;;10.18;9.57;;;;;;;;;;5037148;28;20055;-54
2023/06/01 03:04:15;;;;;;;12.50;11.73;;;;;;;;;;5033773;28;20037;-52
2023/06/01 03:06:40;;;;;;;10.70;10.07;;;;;;;;;;5030675;28;20572;-54
2023/06/01 03:09:12;;;;;;;13.20;12.30;;;;;;;;;;5033818;28;20415;-52
2023/06/01 03:11:40;;;;;;;12.35;11.65;;;;;;;;;;5034767;28;20044;-49
2023/06/01 03:14:05;;;;;;;11.73;11.02;;;;;;;;;;5032237;28;20408;-50
2023/06/01 03:16:31;;;;;;;12.52;11.73;;;;;;;;;;5033120;28;20025;-52
2023/06/01 03:18:56;;;;;;;10.88;10.23;;;;;;;;;;5031641;28;20348;-51
2023/06/01 03:21:21;;;;;;;12.60;11.80;;;;;;;;;;5033432;28;20534;-51
2023/06/01 03:23:47;;;;;;;11.15;10.45;;;;;;;;;;5034402;28;20046;-51
2023/06/01 03:26:13;;;;;;;11.80;11.10;;;;;;;;;;5036764;28;20060;-54
2023/06/01 03:28:39;;;;;;;12.13;11.32;;;;;;;;;;5034702;28;20120;-53
2023/06/01 03:31:05;;;;;;;11.95;11.25;;;;;;;;;;5031937;28;20570;-51
2023/06/01 03:33:30;;;;;;;12.70;11.80;;;;;;;;;;5034950;28;20041;-51
2023/06/01 03:35:56;;;;;;;12.20;11.27;;;;;;;;;;5033105;28;20036;-51
2023/06/01 03:38:21;;;;;;;12.05;11.35;;;;;;;;;;5036523;28;20041;-54
2023/06/01 03:40:47;;;;;;;13.35;12.55;;;;;;;;;;5034844;28;20446;-52
2023/06/01 03:43:12;;;;;;;12.15;11.45;;;;;;;;;;5031420;28;20033;-54
2023/06/01 03:45:37;;;;;;;11.90;11.20;;;;;;;;;;5036828;28;20048;-50
2023/06/01 03:48:03;;;;;;;11.48;10.77;;;;;;;;;;5032621;28;20094;-51
2023/06/01 03:50:29;;;;;;;11.30;10.60;;;;;;;;;;5034043;28;20521;-51
2023/06/01 03:52:55;;;;;;;12.57;11.57;;;;;;;;;;5032989;28;20112;-53
2023/06/01 03:55:20;;;;;;;12.40;11.50;;;;;;;;;;5032795;28;20033;-51
2023/06/01 03:57:46;;;;;;;11.75;11.05;;;;;;;;;;5033871;28;20045;-53
2023/06/01 04:00:17;;;;;;;12.82;11.98;;;;;;;;;;5029394;28;20120;-50
2023/06/01 04:02:55;;;;;;;12.23;11.32;;;;;;;;;;5029742;28;20074;-54
2023/06/01 04:05:21;;;;;;;12.68;11.82;;;;;;;;;;5034869;28;20095;-53
2023/06/01 04:07:48;;;;;;;11.38;10.68;;;;;;;;;;5041721;28;20048;-52
2023/06/01 04:10:16;;;;;;;11.77;11.07;;;;;;;;;;5033064;28;20046;-53
2023/06/01 04:12:42;;;;;;;11.55;10.85;;;;;;;;;;5034810;28;20417;-53
2023/06/01 04:15:09;;;;;;;11.50;10.80;;;;;;;;;;5035315;28;20041;-51
2023/06/01 04:17:38;;;;;;;11.35;10.65;;;;;;;;;;5036227;28;20038;-53
2023/06/01 04:20:06;;;;;;;11.93;11.23;;;;;;;;;;5036385;28;20041;-50
2023/06/01 04:22:32;;;;;;;11.98;11.27;;;;;;;;;;5035831;28;20068;-53
2023/06/01 04:24:57;;;;;;;12.27;11.57;;;;;;;;;;5036637;28;20037;-50
2023/06/01 04:27:24;;;;;;;13.07;12.27;;;;;;;;;;5034479;28;20037;-51
2023/06/01 04:29:50;;;;;;;13.30;12.50;;;;;;;;;;5035305;28;20366;-50
2023/06/01 04:32:21;;;;;;;12.40;11.70;;;;;;;;;;5035930;28;20037;-48
2023/06/01 04:34:48;;;;;;;;;;;;;;;;;;5035455;28;20045;-51
2023/06/01 04:37:14;;;;;;;11.90;11.10;;;;;;;;;;5032559;28;20012;-50
2023/06/01 04:39:41;;;;;;;13.40;12.60;;;;;;;;;;5033580;28;20043;-50
2023/06/01 04:42:08;;;;;;;13.63;12.82;;;;;;;;;;5034916;28;20095;-53
2023/06/01 04:44:34;;;;;;;11.82;11.13;;;;;;;;;;5029347;28;20760;-51
2023/06/01 04:47:03;;;;;;;13.20;12.27;;;;;;;;;;5031105;28;20029;-52
2023/06/01 04:49:30;;;;;;;14.07;13.20;;;;;;;;;;5032712;28;20537;-55
2023/06/01 04:51:55;;;;;;;13.85;13.05;;;;;;;;;;5035787;28;20042;-51
2023/06/01 04:54:20;;;;;;;13.45;12.65;;;;;;;;;;5032762;28;20055;-51
2023/06/01 04:56:46;;;;;;;13.93;11.57;;;;;;;;;;5032143;28;20030;-53
2023/06/01 04:59:11;;;;;;;10.57;9.88;;;;;;;;;;5036104;28;20037;-53
2023/06/01 05:01:38;;;;;;;10.48;9.88;;;;;;;;;;5037334;28;20037;-53
2023/06/01 05:04:04;;;;;;;9.63;9.02;;;;;;;;;;5034210;28;20056;-53
2023/06/01 05:06:29;;;;;;;10.10;9.50;;;;;;;;;;5038520;28;20424;-53
2023/06/01 05:08:55;;;;;;;9.93;9.23;;;;;;;;;;5037606;28;20136;-54
2023/06/01 05:11:21;;;;;;;11.18;10.48;;;;;;;;;;5031365;28;20441;-52
2023/06/01 05:13:46;;;;;;;10.43;9.82;;;;;;;;;;5034492;28;20025;-53
2023/06/01 05:16:12;;;;;;;10.00;9.40;;;;;;;;;;5034594;28;20045;-53
2023/06/01 05:18:38;;;;;;;10.90;10.20;;;;;;;;;;5034248;28;20029;-52
2023/06/01 05:21:03;;;;;;;9.55;8.95;;;;;;;;;;5036166;28;20112;-53
2023/06/01 05:23:29;;;;;;;9.57;8.98;;;;;;;;;;5035408;28;20036;-52
2023/06/01 05:26:02;;;;;;;10.02;9.35;;;;;;;;;;5035307;28;20132;-53
2023/06/01 05:28:31;;;;;;;9.52;8.73;;;;;;;;;;5039152;28;20059;-54
2023/06/01 05:30:57;;;;;;;10.45;9.75;;;;;;;;;;5037764;28;20041;-53
2023/06/01 05:33:22;;;;;;;8.80;8.23;;;;;;;;;;5036156;28;20628;-54
2023/06/01 05:35:47;;;;;;;9.82;9.23;;;;;;;;;;5032267;28;20077;-53
2023/06/01 05:38:13;;;;;;;10.45;9.75;;;;;;;;;;5033732;28;20036;-50
2023/06/01 05:40:38;;;;;;;12.10;11.20;;;;;;;;;;5037084;28;20040;-53
2023/06/01 05:43:03;;;;;;;11.95;11.25;;;;;;;;;;5035700;28;20688;-55
2023/06/01 05:45:29;;;;;;;13.00;12.20;;;;;;;;;;5034448;28;20574;-53
2023/06/01 05:47:55;;;;;;;13.43;12.63;;;;;;;;;;5035645;28;20724;-51
2023/06/01 05:50:20;;;;;;;14.57;13.73;;;;;;;;;;5033793;28;20519;-55
2023/06/01 05:52:45;;;;;;;15.80;14.85;;;;;;;;;;5033076;28;20365;-52
2023/06/01 05:55:11;;;;;;;15.50;14.60;;;;;;;;;;5034138;28;20051;-48
2023/06/01 05:57:36;;;;;;;15.30;14.43;;;;;;;;;;5037902;28;20120;-55
2023/06/01 06:00:07;;;;;;;14.80;14.00;;;;;;;;;;5037859;28;20057;-55
2023/06/01 06:02:32;;;;;;;15.20;14.30;;;;;;;;;;5035229;28;20124;-49
2023/06/01 06:04:58;;;;;;;14.50;13.70;;;;;;;;;;5036265;28;20504;-49
2023/06/01 06:07:23;;;;;;;16.98;15.98;;;;;;;;;;5032545;28;20424;-50
2023/06/01 06:09:48;;;;;;;14.38;13.43;;;;;;;;;;5032298;28;20115;-52
2023/06/01 06:12:14;;;;;;;15.27;14.38;;;;;;;;;;5035724;28;20090;-53
2023/06/01 06:14:39;;;;;;;14.40;13.60;;;;;;;;;;5036133;28;20040;-51
2023/06/01 06:17:05;;;;;;;14.05;13.25;;;;;;;;;;5035203;28;20114;-53
2023/06/01 06:19:30;;;;;;;14.45;13.65;;;;;;;;;;5032582;28;20102;-51
2023/06/01 06:21:56;;;;;;;16.08;15.18;;;;;;;;;;5034758;28;20041;-53
2023/06/01 06:24:21;;;;;;;14.50;13.68;;;;;;;;;;5033563;28;20118;-54
2023/06/01 06:26:47;;;;;;;16.33;15.27;;;;;;;;;;5033712;28;20036;-52
2023/06/01 06:29:12;;;;;;;16.27;15.38;;;;;;;;;;5031672;28;20077;-51
2023/06/01 06:31:37;;;;;;;20.58;19.48;;;;;;;;;;5032656;28;20316;-52
2023/06/01 06:34:03;;;;;;;21.20;20.02;;;;;;;;;;5039548;28;20033;-52
2023/06/01 06:36:28;;;;;;;22.38;21.17;;;;;;;;;;5034594;28;20033;-53
2023/06/01 06:38:54;;;;;;;31.30;29.60;;;;;;;;;;5033888;28;20057;-50
2023/06/01 06:41:20;;;;;;;31.55;29.85;;;;;;;;;;5034041;28;20074;-50
2023/06/01 06:43:46;;;;;;;27.98;26.48;;;;;;;;;;5032847;28;20114;-51
2023/06/01 06:46:11;;;;;;;18.92;17.83;;;;;;;;;;5034060;28;20443;-53
2023/06/01 06:48:37;;;;;;;33.47;31.75;;;;;;;;;;5034953;28;20624;-53
2023/06/01 06:51:02;;;;;;;26.60;25.20;;;;;;;;;;5034454;28;20053;-51
2023/06/01 06:53:27;;;;;;;35.03;33.20;;;;;;;;;;5033168;28;20031;-52
2023/06/01 06:55:53;;;;;;;33.05;31.33;;;;;;;;;;5033182;28;20056;-50
2023/06/01 06:58:18;;;;;;;33.00;31.30;;;;;;;;;;5034025;28;20042;-51
2023/06/01 07:00:43;;;;;;;37.08;35.03;;;;;;;;;;5031952;28;20030;-52
2023/06/01 07:03:10;;;;;;;29.27;27.73;;;;;;;;;;5032325;28;20028;-51
2023/06/01 07:05:35;;;;;;;42.53;40.22;;;;;;;;;;5035469;28;20109;-50
2023/06/01 07:08:00;;;;;;;41.17;39.10;;;;;;;;;;5033546;28;20074;-50
2023/06/01 07:10:26;;;;;;;29.02;27.50;;;;;;;;;;5029012;28;20052;-63
2023/06/01 07:12:51;;;;;;;23.65;22.35;;;;;;;;;;5033005;28;20037;-63
2023/06/01 07:15:17;;;;;;;18.15;17.15;;;;;;;;;;5035056;28;20045;-63
2023/06/01 07:17:42;;;;;;;16.63;15.73;;;;;;;;;;5032566;28;20025;-53
2023/06/01 07:20:11;;;;;;;16.88;15.98;;;;;;;;;;5032348;28;20034;-51
2023/06/01 07:22:37;;;;;;;19.42;18.27;;;;;;;;;;5034792;28;20033;-53
2023/06/01 07:25:03;;;;;;;17.23;16.23;;;;;;;;;;5037454;28;20455;-51
2023/06/01 07:27:28;;;;;;;17.67;16.67;;;;;;;;;;5032993;28;20033;-52
2023/06/01 07:29:56;;;;;;;17.90;16.90;;;;;;;;;;5040246;28;20048;-53
2023/06/01 07:32:23;;;;;;;25.02;23.40;;;;;;;;;;5031361;28;20068;-53
2023/06/01 07:34:48;;;;;;;25.92;24.25;;;;;;;;;;5032136;28;20040;-53
2023/06/01 07:37:14;;;;;;;41.30;39.15;;;;;;;;;;5029639;28;20029;-54
2023/06/01 07:39:39;;;;;;;77.97;74.07;;;;;;;;;;5035213;28;20029;-53
2023/06/01 07:42:05;;;;;;;43.05;40.80;;;;;;;;;;5035803;28;20041;-52
2023/06/01 07:44:30;;;;;;;25.45;24.05;;;;;;;;;;5035906;28;20052;-52
2023/06/01 07:46:56;;;;;;;102.15;97.15;;;;;;;;;;5034332;28;20034;-52
2023/06/01 07:49:21;;;;;;;99.68;94.78;;;;;;;;;;5034874;28;20329;-52
2023/06/01 07:51:47;;;;;;;81.72;77.68;;;;;;;;;;5036672;28;20075;-52
2023/06/01 07:54:12;;;;;;;104.03;98.88;;;;;;;;;;5033399;28;20128;-51
2023/06/01 07:56:39;;;;;;;89.65;85.22;;;;;;;;;;5035475;28;20041;-53
2023/06/01 07:59:04;;;;;;;99.68;94.75;;;;;;;;;;5035665;28;20175;-51
2023/06/01 08:01:30;;;;;;;101.93;96.80;;;;;;;;;;5035686;28;20112;-53
2023/06/01 08:03:56;;;;;;;90.82;86.35;;;;;;;;;;5034795;28;20036;-52
2023/06/01 08:06:22;;;;;;;67.85;64.45;;;;;;;;;;5034515;28;20080;-52
2023/06/01 08:08:49;;;;;;;83.68;79.57;;;;;;;;;;5033493;28;20576;-53
2023/06/01 08:11:15;;;;;;;71.70;68.07;;;;;;;;;;5035478;28;20163;-53
2023/06/01 08:13:41;;;;;;;104.88;99.78;;;;;;;;;;5034637;28;20048;-51
2023/06/01 08:16:07;;;;;;;114.95;109.30;;;;;;;;;;5037180;28;20490;-54
2023/06/01 08:18:33;;;;;;;111.45;106.00;;;;;;;;;;5037141;28;20045;-55
2023/06/01 08:21:00;;;;;;;65.60;62.33;;;;;;;;;;5039188;28;20044;-54
2023/06/01 08:23:26;;;;;;;59.88;56.80;;;;;;;;;;5036249;28;20128;-52
2023/06/01 08:25:52;;;;;;;90.90;86.43;;;;;;;;;;5037632;28;20047;-54
2023/06/01 08:28:17;;;;;;;61.47;58.30;;;;;;;;;;5037479;28;20422;-54
2023/06/01 08:30:43;;;;;;;60.72;57.53;;;;;;;;;;5038857;28;20021;-53
2023/06/01 08:33:08;;;;;;;63.08;59.92;;;;;;;;;;5036692;28;20108;-53
2023/06/01 08:35:34;;;;;;;67.22;63.88;;;;;;;;;;5034085;28;20047;-51
2023/06/01 08:38:00;;;;;;;65.55;62.30;;;;;;;;;;5033363;28;20108;-54
2023/06/01 08:40:27;;;;;;;67.03;63.65;;;;;;;;;;5034565;28;20427;-55
2023/06/01 08:42:59;;;;;;;67.28;63.92;;;;;;;;;;5029262;28;20110;-54
2023/06/01 08:45:26;;;;;;;63.92;60.72;;;;;;;;;;5033450;28;20037;-53
2023/06/01 08:47:55;;;;;;;61.70;58.60;;;;;;;;;;5031597;28;20043;-53
2023/06/01 08:50:21;;;;;;;65.90;62.60;;;;;;;;;;5033717;28;20043;-52
2023/06/01 08:52:48;;;;;;;60.97;57.88;;;;;;;;;;5036922;28;20047;-54
2023/06/01 08:55:14;;;;;;;66.60;63.20;;;;;;;;;;5035689;28;20048;-54
2023/06/01 08:57:41;;;;;;;63.05;59.90;;;;;;;;;;5036593;28;20028;-52
2023/06/01 09:00:10;;;;;;;74.30;70.65;;;;;;;;;;5032062;28;20094;-53
2023/06/01 09:02:35;;;;;;;39.35;37.35;;;;;;;;;;5037269;28;20371;-53
2023/06/01 09:05:01;;;;;;;53.05;50.35;;;;;;;;;;5036226;28;20038;-52
2023/06/01 09:07:27;;;;;;;47.88;45.45;;;;;;;;;;5033387;28;20140;-53
2023/06/01 09:09:53;;;;;;;44.25;41.95;;;;;;;;;;5032047;28;20123;-54
2023/06/01 09:12:24;;;;;;;35.13;33.33;;;;;;;;;;5036118;28;20460;-54
2023/06/01 09:14:50;;;;;;;47.50;45.05;;;;;;;;;;5035364;28;20041;-52
2023/06/01 09:17:23;;;;;;;44.83;42.53;;;;;;;;;;5035325;28;20083;-55
2023/06/01 09:19:55;;;;;;;39.45;37.45;;;;;;;;;;5035318;28;20041;-53
2023/06/01 09:22:20;;;;;;;46.90;44.35;;;;;;;;;;5034973;28;20137;-55
2023/06/01 09:24:59;;;;;;;34.60;32.80;;;;;;;;;;5033892;28;20502;-53
2023/06/01 09:27:26;;;;;;;32.83;31.15;;;;;;;;;;5037108;28;20119;-54
2023/06/01 09:30:01;;;;;;;50.03;47.42;;;;;;;;;;5033352;28;20056;-53
2023/06/01 09:32:26;;;;;;;38.30;36.33;;;;;;;;;;5035029;28;20112;-53
2023/06/01 09:34:51;;;;;;;32.80;30.05;;;;;;;;;;5034960;28;20512;-54
2023/06/01 09:37:17;;;;;;;23.67;22.40;;;;;;;;;;5036481;28;20123;-53
2023/06/01 09:39:42;;;;;;;25.98;24.58;;;;;;;;;;5030740;28;20040;-51
2023/06/01 09:42:09;;;;;;;24.35;23.02;;;;;;;;;;5034433;28;20037;-49
2023/06/01 09:44:41;;;;;;;26.50;25.10;;;;;;;;;;5034218;28;20105;-53
2023/06/01 09:47:10;;;;;;;23.48;22.13;;;;;;;;;;5036233;28;20029;-50
2023/06/01 09:49:41;;;;;;;26.02;24.67;;;;;;;;;;5034487;28;20717;-55
2023/06/01 09:52:06;;;;;;;26.70;25.30;;;;;;;;;;5036483;28;20383;-55
2023/06/01 09:54:41;;;;;;;25.63;24.27;;;;;;;;;;5032466;28;20045;-53
2023/06/01 09:57:08;;;;;;;22.83;21.63;;;;;;;;;;5034552;28;20032;-53
2023/06/01 09:59:45;;;;;;;25.10;23.77;;;;;;;;;;5031804;28;20108;-54
2023/06/01 10:02:18;;;;;;;24.88;23.58;;;;;;;;;;5034115;28;20039;-54
2023/06/01 10:04:58;;;;;;;31.42;29.80;;;;;;;;;;5042729;28;20040;-54
2023/06/01 10:07:27;;;;;;;36.72;34.83;;;;;;;;;;5035388;28;20037;-55
2023/06/01 10:09:58;;;;;;;35.78;33.88;;;;;;;;;;5034330;28;20111;-55
2023/06/01 10:12:24;;;;;;;39.88;37.83;;;;;;;;;;5035399;28;20063;-52
2023/06/01 10:14:50;;;;;;;40.13;38.05;;;;;;;;;;5033258;28;20052;-52
2023/06/01 10:17:18;;;;;;;44.25;41.95;;;;;;;;;;5034078;28;20037;-54
2023/06/01 10:19:44;;;;;;;52.80;50.03;;;;;;;;;;5033956;28;20075;-52
2023/06/01 10:22:11;;;;;;;49.58;47.05;;;;;;;;;;5034991;28;20029;-54
2023/06/01 10:24:41;;;;;;;54.00;51.13;;;;;;;;;;5032276;28;20681;-51
2023/06/01 10:27:22;;;;;;;55.97;53.13;;;;;;;;;;5035432;28;20041;-54
2023/06/01 10:29:47;;;;;;;58.78;55.78;;;;;;;;;;5032670;28;20041;-51
2023/06/01 10:32:42;;;;;;;54.45;51.70;;;;;;;;;;5033191;28;20032;-55
2023/06/01 10:35:10;;;;;;;55.95;53.15;;;;;;;;;;5033848;28;20033;-54
2023/06/01 10:37:35;;;;;;;51.85;49.25;;;;;;;;;;5033913;28;20157;-53
2023/06/01 10:40:20;;;;;;;77.43;73.57;;;;;;;;;;5034088;28;20143;-53
2023/06/01 10:42:45;;;;;;;78.65;74.75;;;;;;;;;;5033753;28;20025;-51
2023/06/01 10:45:41;;;;;;;82.28;78.10;;;;;;;;;;5034949;28;20041;-50
2023/06/01 10:48:11;;;;;;;63.65;60.50;;;;;;;;;;5031219;28;20034;-55
2023/06/01 10:50:38;;;;;;;62.08;58.85;;;;;;;;;;5029808;28;20120;-52
2023/06/01 10:53:25;;;;;;;49.25;46.78;;;;;;;;;;5033134;28;20033;-52
2023/06/01 10:56:24;;;;;;;62.83;59.70;;;;;;;;;;5033109;28;20106;-49
2023/06/01 10:59:08;;;;;;;58.08;55.13;;;;;;;;;;5030235;28;20049;-52
2023/06/01 11:01:44;;;;;;;53.92;51.22;;;;;;;;;;5032072;28;20103;-49
2023/06/01 11:04:10;;;;;;;75.82;72.05;;;;;;;;;;5035223;28;20098;-51
2023/06/01 11:06:40;;;;;;;88.75;84.38;;;;;;;;;;5030715;28;20045;-51
2023/06/01 11:09:08;;;;;;;87.10;82.72;;;;;;;;;;5032092;28;20116;-54
2023/06/01 11:11:52;;;;;;;57.70;54.80;;;;;;;;;;5035077;28;20048;-54
2023/06/01 11:14:25;;;;;;;91.90;87.38;;;;;;;;;;5035290;28;20037;-55
2023/06/01 11:16:54;;;;;;;67.90;64.53;;;;;;;;;;5036484;28;20511;-53
2023/06/01 11:19:24;;;;;;;68.57;65.15;;;;;;;;;;5037175;28;20048;-54
2023/06/01 11:21:55;;;;;;;87.68;83.38;;;;;;;;;;5035359;28;20064;-54
2023/06/01 11:24:20;;;;;;;85.22;81.00;;;;;;;;;;5037079;28;20049;-52
2023/06/01 11:26:48;;;;;;;65.05;61.80;;;;;;;;;;5037122;28;20037;-54
2023/06/01 11:29:23;;;;;;;46.28;43.92;;;;;;;;;;5035689;28;20053;-54
2023/06/01 11:31:49;;;;;;;34.50;32.72;;;;;;;;;;5035481;28;20041;-54
2023/06/01 11:34:18;;;;;;;25.08;23.77;;;;;;;;;;5035443;28;20192;-54
2023/06/01 11:36:50;;;;;;;32.50;30.65;;;;;;;;;;5041533;28;20091;-54
2023/06/01 11:39:23;;;;;;;33.38;31.65;;;;;;;;;;5034020;28;20071;-51
2023/06/01 11:42:05;;;;;;;33.92;31.88;;;;;;;;;;5039596;28;20037;-55
2023/06/01 11:44:30;;;;;;;28.10;26.60;;;;;;;;;;5040625;28;20037;-55
2023/06/01 11:46:57;;;;;;;44.35;42.00;;;;;;;;;;5034624;28;20044;-52
2023/06/01 11:49:23;;;;;;;53.60;50.92;;;;;;;;;;5032158;28;20487;-51
2023/06/01 11:51:51;;;;;;;35.25;33.40;;;;;;;;;;5037613;28;20033;-55
2023/06/01 11:54:20;;;;;;;24.58;23.27;;;;;;;;;;5039268;28;20040;-54
2023/06/01 11:56:46;;;;;;;29.63;28.10;;;;;;;;;;5034716;28;20039;-51
2023/06/01 11:59:13;;;;;;;29.27;27.65;;;;;;;;;;5038051;28;20438;-51
2023/06/01 12:01:43;;;;;;;21.08;19.95;;;;;;;;;;5038905;28;20125;-53
2023/06/01 12:04:23;;;;;;;19.35;18.27;;;;;;;;;;5033754;28;20052;-51
2023/06/01 12:06:49;;;;;;;21.42;20.13;;;;;;;;;;5033201;28;20034;-51
2023/06/01 12:09:16;;;;;;;21.00;19.90;;;;;;;;;;5035545;28;20048;-53
2023/06/01 12:11:44;;;;;;;22.30;20.38;;;;;;;;;;5036360;28;20047;-54
2023/06/01 12:14:10;;;;;;;17.77;16.77;;;;;;;;;;5035571;28;20041;-54
2023/06/01 12:16:56;;;;;;;18.33;17.30;;;;;;;;;;5039758;28;20718;-50
2023/06/01 12:19:22;;;;;;;18.92;17.92;;;;;;;;;;5052492;28;20248;-51
2023/06/01 12:21:49;;;;;;;17.52;16.52;;;;;;;;;;5035312;28;20161;-52
2023/06/01 12:24:15;;;;;;;18.00;16.98;;;;;;;;;;5041705;28;20037;-51
2023/06/01 12:26:40;;;;;;;17.52;16.52;;;;;;;;;;5037142;28;20048;-54
2023/06/01 12:29:06;;;;;;;18.48;17.27;;;;;;;;;;5034263;28;20117;-51
2023/06/01 12:31:32;;;;;;;17.35;16.35;;;;;;;;;;5034334;28;20053;-50
2023/06/01 12:33:57;;;;;;;19.10;17.35;;;;;;;;;;5034461;28;20117;-54
2023/06/01 12:36:37;;;;;;;17.85;16.80;;;;;;;;;;5035355;28;20037;-52
2023/06/01 12:39:04;;;;;;;16.40;15.50;;;;;;;;;;5035191;28;20036;-51
2023/06/01 12:41:31;;;;;;;16.83;15.93;;;;;;;;;;5033474;28;20037;-50
2023/06/01 12:43:57;;;;;;;17.40;16.40;;;;;;;;;;5033550;28;20033;-51
2023/06/01 12:46:25;;;;;;;20.40;19.30;;;;;;;;;;5036078;28;20033;-50
2023/06/01 12:48:53;;;;;;;19.77;18.67;;;;;;;;;;5036131;28;20534;-53
2023/06/01 12:51:19;;;;;;;22.10;20.90;;;;;;;;;;5034519;28;20071;-52
2023/06/01 12:53:45;;;;;;;17.48;16.48;;;;;;;;;;5035446;28;20072;-49
2023/06/01 12:56:11;;;;;;;18.88;17.83;;;;;;;;;;5037461;28;20604;-49
2023/06/01 12:58:37;;;;;;;24.40;23.10;;;;;;;;;;5032799;28;20029;-53
2023/06/01 13:01:03;;;;;;;17.80;16.80;;;;;;;;;;5030850;28;20495;-53
2023/06/01 13:03:29;;;;;;;19.90;18.80;;;;;;;;;;5036573;28;20069;-54
2023/06/01 13:05:55;;;;;;;18.17;17.17;;;;;;;;;;5033105;28;20067;-52
2023/06/01 13:08:20;;;;;;;17.95;16.95;;;;;;;;;;5034085;28;20041;-52
2023/06/01 13:10:46;;;;;;;17.92;16.92;;;;;;;;;;5034767;28;20033;-53
2023/06/01 13:13:12;;;;;;;18.40;17.10;;;;;;;;;;5033944;28;20065;-54
2023/06/01 13:15:44;;;;;;;17.80;16.80;;;;;;;;;;5037283;28;20056;-54
2023/06/01 13:18:11;;;;;;;19.45;18.35;;;;;;;;;;5032583;28;20035;-51
2023/06/01 13:20:39;;;;;;;18.80;17.80;;;;;;;;;;5039093;28;20060;-53
2023/06/01 13:23:04;;;;;;;18.17;17.17;;;;;;;;;;5035271;28;20048;-50
2023/06/01 13:25:29;;;;;;;16.83;15.82;;;;;;;;;;5036211;28;20037;-53
2023/06/01 13:27:56;;;;;;;18.60;17.60;;;;;;;;;;5033939;28;20411;-51
2023/06/01 13:30:21;;;;;;;18.35;17.35;;;;;;;;;;5035198;28;20037;-52
2023/06/01 13:32:47;;;;;;;18.25;17.25;;;;;;;;;;5034268;28;20120;-54
2023/06/01 13:35:12;;;;;;;17.33;16.33;;;;;;;;;;5032367;28;20710;-51
2023/06/01 13:37:38;;;;;;;16.90;15.95;;;;;;;;;;5032729;28;20041;-53
2023/06/01 13:40:05;;;;;;;17.67;16.67;;;;;;;;;;5035503;28;20033;-50
2023/06/01 13:42:32;;;;;;;17.27;16.27;;;;;;;;;;5036189;28;20041;-49
2023/06/01 13:44:58;;;;;;;18.25;17.25;;;;;;;;;;5034371;28;20033;-49
2023/06/01 13:47:23;;;;;;;19.75;18.65;;;;;;;;;;5034449;28;20037;-49
2023/06/01 13:49:49;;;;;;;17.75;16.75;;;;;;;;;;5035113;28;20049;-51
2023/06/01 13:52:15;;;;;;;17.65;16.65;;;;;;;;;;5038268;28;20474;-52
2023/06/01 13:54:40;;;;;;;22.77;21.58;;;;;;;;;;5034473;28;20354;-51
2023/06/01 13:57:07;;;;;;;27.45;26.00;;;;;;;;;;5033543;28;20025;-53
2023/06/01 13:59:34;;;;;;;22.75;21.02;;;;;;;;;;5032844;28;20057;-51
2023/06/01 14:02:00;;;;;;;19.50;18.40;;;;;;;;;;5033078;28;20091;-63
2023/06/01 14:04:25;;;;;;;18.42;17.42;;;;;;;;;;5032971;28;20032;-63
2023/06/01 14:06:51;;;;;;;19.73;18.63;;;;;;;;;;5034806;28;20065;-63
2023/06/01 14:09:17;;;;;;;19.73;18.63;;;;;;;;;;5030923;28;20063;-63
2023/06/01 14:11:42;;;;;;;18.38;17.38;;;;;;;;;;5032056;28;20033;-62
2023/06/01 14:14:08;;;;;;;17.17;16.17;;;;;;;;;;5030017;28;20445;-63
2023/06/01 14:16:33;;;;;;;19.02;17.98;;;;;;;;;;5032270;28;20029;-64
2023/06/01 14:18:58;;;;;;;21.20;20.02;;;;;;;;;;5031036;28;20055;-64
2023/06/01 14:21:24;;;;;;;17.95;16.85;;;;;;;;;;5034007;28;20753;-64